sensor_id;sensor_type;location;lat;lon;timestamp;P1;durP1;ratioP1;P2;durP2;ratioP2
64459;SDS011;50828;53.756;21.140;2023-04-03T00:04:42;2.30;;;1.10;;
64459;SDS011;50828;53.756;21.140;2023-04-03T00:09:50;3.40;;;1.10;;
64459;SDS011;50828;53.756;21.140;2023-04-03T00:14:57;3.20;;;0.80;;
64459;SDS011;50828;53.756;21.140;2023-04-03T00:20:05;3.40;;;1.20;;
64459;SDS011;50828;53.756;21.140;2023-04-03T00:25:13;3.10;;;1.10;;
64459;SDS011;50828;53.756;21.140;2023-04-03T00:30:21;3.20;;;0.90;;
64459;SDS011;50828;53.756;21.140;2023-04-03T00:35:29;2.80;;;0.80;;
64459;SDS011;50828;53.756;21.140;2023-04-03T00:40:38;3.50;;;0.80;;
64459;SDS011;50828;53.756;21.140;2023-04-03T00:45:47;1.00;;;0.60;;
64459;SDS011;50828;53.756;21.140;2023-04-03T00:50:55;4.20;;;1.00;;
64459;SDS011;50828;53.756;21.140;2023-04-03T00:56:04;2.90;;;1.00;;
64459;SDS011;50828;53.756;21.140;2023-04-03T01:01:15;3.80;;;0.80;;
64459;SDS011;50828;53.756;21.140;2023-04-03T01:06:27;3.50;;;1.10;;
64459;SDS011;50828;53.756;21.140;2023-04-03T01:11:44;4.70;;;0.80;;
64459;SDS011;50828;53.756;21.140;2023-04-03T01:16:54;2.20;;;0.90;;
64459;SDS011;50828;53.756;21.140;2023-04-03T01:22:07;1.80;;;0.90;;
64459;SDS011;50828;53.756;21.140;2023-04-03T01:27:24;2.80;;;1.10;;
64459;SDS011;50828;53.756;21.140;2023-04-03T01:32:32;2.50;;;0.80;;
64459;SDS011;50828;53.756;21.140;2023-04-03T01:37:39;2.90;;;1.00;;
64459;SDS011;50828;53.756;21.140;2023-04-03T01:42:46;3.20;;;1.00;;
64459;SDS011;50828;53.756;21.140;2023-04-03T01:47:54;3.00;;;0.80;;
64459;SDS011;50828;53.756;21.140;2023-04-03T01:53:02;2.10;;;0.80;;
64459;SDS011;50828;53.756;21.140;2023-04-03T01:58:09;4.00;;;0.90;;
64459;SDS011;50828;53.756;21.140;2023-04-03T02:03:16;3.70;;;0.80;;
64459;SDS011;50828;53.756;21.140;2023-04-03T02:08:24;5.30;;;0.90;;
64459;SDS011;50828;53.756;21.140;2023-04-03T02:13:31;2.20;;;0.90;;
64459;SDS011;50828;53.756;21.140;2023-04-03T02:18:38;4.20;;;1.10;;
64459;SDS011;50828;53.756;21.140;2023-04-03T02:23:46;7.00;;;1.60;;
64459;SDS011;50828;53.756;21.140;2023-04-03T02:28:54;2.50;;;1.10;;
64459;SDS011;50828;53.756;21.140;2023-04-03T02:34:01;5.60;;;1.00;;
64459;SDS011;50828;53.756;21.140;2023-04-03T02:39:10;2.50;;;1.00;;
64459;SDS011;50828;53.756;21.140;2023-04-03T02:44:17;2.90;;;1.10;;
64459;SDS011;50828;53.756;21.140;2023-04-03T02:49:24;4.30;;;1.40;;
64459;SDS011;50828;53.756;21.140;2023-04-03T02:54:32;3.70;;;1.40;;
64459;SDS011;50828;53.756;21.140;2023-04-03T02:59:40;5.40;;;1.20;;
64459;SDS011;50828;53.756;21.140;2023-04-03T03:04:48;1.60;;;0.90;;
64459;SDS011;50828;53.756;21.140;2023-04-03T03:09:55;5.40;;;1.50;;
64459;SDS011;50828;53.756;21.140;2023-04-03T03:15:02;1.60;;;0.90;;
64459;SDS011;50828;53.756;21.140;2023-04-03T03:20:12;4.40;;;1.00;;
64459;SDS011;50828;53.756;21.140;2023-04-03T03:25:20;4.40;;;1.30;;
64459;SDS011;50828;53.756;21.140;2023-04-03T03:30:27;3.80;;;1.10;;
64459;SDS011;50828;53.756;21.140;2023-04-03T03:35:36;3.20;;;1.10;;
64459;SDS011;50828;53.756;21.140;2023-04-03T03:40:43;4.90;;;1.30;;
64459;SDS011;50828;53.756;21.140;2023-04-03T03:45:52;6.60;;;2.10;;
64459;SDS011;50828;53.756;21.140;2023-04-03T03:51:00;233.10;;;78.70;;
64459;SDS011;50828;53.756;21.140;2023-04-03T03:56:10;340.80;;;108.90;;
64459;SDS011;50828;53.756;21.140;2023-04-03T04:01:18;413.60;;;139.20;;
64459;SDS011;50828;53.756;21.140;2023-04-03T04:06:27;260.40;;;75.00;;
64459;SDS011;50828;53.756;21.140;2023-04-03T04:11:36;113.00;;;32.40;;
64459;SDS011;50828;53.756;21.140;2023-04-03T04:16:45;140.20;;;35.20;;
64459;SDS011;50828;53.756;21.140;2023-04-03T04:21:56;110.70;;;26.60;;
64459;SDS011;50828;53.756;21.140;2023-04-03T04:27:04;103.40;;;23.20;;
64459;SDS011;50828;53.756;21.140;2023-04-03T04:32:12;95.70;;;20.80;;
64459;SDS011;50828;53.756;21.140;2023-04-03T04:37:20;161.20;;;28.30;;
64459;SDS011;50828;53.756;21.140;2023-04-03T04:42:28;202.30;;;32.50;;
64459;SDS011;50828;53.756;21.140;2023-04-03T04:47:35;366.00;;;62.20;;
64459;SDS011;50828;53.756;21.140;2023-04-03T04:52:43;498.70;;;88.50;;
64459;SDS011;50828;53.756;21.140;2023-04-03T04:57:50;511.60;;;92.30;;
64459;SDS011;50828;53.756;21.140;2023-04-03T05:02:58;375.10;;;70.30;;
64459;SDS011;50828;53.756;21.140;2023-04-03T05:08:06;430.10;;;81.00;;
64459;SDS011;50828;53.756;21.140;2023-04-03T05:13:15;283.80;;;55.60;;
64459;SDS011;50828;53.756;21.140;2023-04-03T05:18:23;180.50;;;34.70;;
64459;SDS011;50828;53.756;21.140;2023-04-03T05:23:31;172.50;;;34.10;;
64459;SDS011;50828;53.756;21.140;2023-04-03T05:28:39;101.60;;;26.30;;
64459;SDS011;50828;53.756;21.140;2023-04-03T05:33:47;100.30;;;26.80;;
64459;SDS011;50828;53.756;21.140;2023-04-03T05:38:54;79.90;;;25.40;;
64459;SDS011;50828;53.756;21.140;2023-04-03T05:44:02;78.40;;;23.50;;
64459;SDS011;50828;53.756;21.140;2023-04-03T05:49:09;42.80;;;13.90;;
64459;SDS011;50828;53.756;21.140;2023-04-03T05:54:17;24.60;;;8.70;;
64459;SDS011;50828;53.756;21.140;2023-04-03T05:59:28;22.60;;;7.00;;
64459;SDS011;50828;53.756;21.140;2023-04-03T06:04:35;17.80;;;5.40;;
64459;SDS011;50828;53.756;21.140;2023-04-03T06:09:43;17.00;;;5.70;;
64459;SDS011;50828;53.756;21.140;2023-04-03T06:14:51;10.30;;;4.00;;
64459;SDS011;50828;53.756;21.140;2023-04-03T06:19:59;12.50;;;4.60;;
64459;SDS011;50828;53.756;21.140;2023-04-03T06:25:07;14.60;;;4.40;;
64459;SDS011;50828;53.756;21.140;2023-04-03T06:30:15;9.80;;;3.80;;
64459;SDS011;50828;53.756;21.140;2023-04-03T06:35:23;21.80;;;6.10;;
64459;SDS011;50828;53.756;21.140;2023-04-03T06:40:32;18.90;;;6.00;;
64459;SDS011;50828;53.756;21.140;2023-04-03T06:45:39;11.90;;;3.70;;
64459;SDS011;50828;53.756;21.140;2023-04-03T06:50:47;9.90;;;4.00;;
64459;SDS011;50828;53.756;21.140;2023-04-03T06:55:54;12.40;;;3.70;;
64459;SDS011;50828;53.756;21.140;2023-04-03T07:01:01;9.90;;;3.40;;
64459;SDS011;50828;53.756;21.140;2023-04-03T07:06:09;14.10;;;4.80;;
64459;SDS011;50828;53.756;21.140;2023-04-03T07:11:19;17.80;;;5.00;;
64459;SDS011;50828;53.756;21.140;2023-04-03T07:16:26;12.70;;;4.00;;
64459;SDS011;50828;53.756;21.140;2023-04-03T07:21:34;8.00;;;2.40;;
64459;SDS011;50828;53.756;21.140;2023-04-03T07:26:41;15.40;;;6.00;;
64459;SDS011;50828;53.756;21.140;2023-04-03T07:31:50;12.00;;;4.30;;
64459;SDS011;50828;53.756;21.140;2023-04-03T07:36:57;8.20;;;2.60;;
64459;SDS011;50828;53.756;21.140;2023-04-03T07:42:05;7.20;;;2.90;;
64459;SDS011;50828;53.756;21.140;2023-04-03T07:47:12;12.50;;;4.40;;
64459;SDS011;50828;53.756;21.140;2023-04-03T07:52:21;6.80;;;2.70;;
64459;SDS011;50828;53.756;21.140;2023-04-03T07:57:28;10.90;;;3.80;;
64459;SDS011;50828;53.756;21.140;2023-04-03T08:02:36;7.90;;;2.70;;
64459;SDS011;50828;53.756;21.140;2023-04-03T08:07:43;9.20;;;2.90;;
64459;SDS011;50828;53.756;21.140;2023-04-03T08:12:50;8.00;;;2.60;;
64459;SDS011;50828;53.756;21.140;2023-04-03T08:17:57;6.70;;;1.70;;
64459;SDS011;50828;53.756;21.140;2023-04-03T08:23:05;4.60;;;2.00;;
64459;SDS011;50828;53.756;21.140;2023-04-03T08:28:13;6.40;;;2.20;;
64459;SDS011;50828;53.756;21.140;2023-04-03T08:33:20;5.20;;;2.10;;
64459;SDS011;50828;53.756;21.140;2023-04-03T08:38:28;6.00;;;2.10;;
64459;SDS011;50828;53.756;21.140;2023-04-03T08:43:36;3.30;;;1.50;;
64459;SDS011;50828;53.756;21.140;2023-04-03T08:48:52;9.00;;;2.90;;
64459;SDS011;50828;53.756;21.140;2023-04-03T08:54:04;6.10;;;3.00;;
64459;SDS011;50828;53.756;21.140;2023-04-03T08:59:21;20.50;;;8.80;;
64459;SDS011;50828;53.756;21.140;2023-04-03T09:04:35;17.60;;;6.50;;
64459;SDS011;50828;53.756;21.140;2023-04-03T09:09:43;23.80;;;6.50;;
64459;SDS011;50828;53.756;21.140;2023-04-03T09:14:57;17.20;;;5.60;;
64459;SDS011;50828;53.756;21.140;2023-04-03T09:20:17;13.60;;;4.40;;
64459;SDS011;50828;53.756;21.140;2023-04-03T09:25:31;10.70;;;3.50;;
64459;SDS011;50828;53.756;21.140;2023-04-03T09:35:47;11.00;;;2.60;;
64459;SDS011;50828;53.756;21.140;2023-04-03T09:41:03;6.10;;;3.10;;
64459;SDS011;50828;53.756;21.140;2023-04-03T09:46:23;6.90;;;3.20;;
64459;SDS011;50828;53.756;21.140;2023-04-03T09:51:33;10.80;;;3.40;;
64459;SDS011;50828;53.756;21.140;2023-04-03T09:56:41;9.70;;;2.70;;
64459;SDS011;50828;53.756;21.140;2023-04-03T10:01:58;9.40;;;2.70;;
64459;SDS011;50828;53.756;21.140;2023-04-03T10:12:35;9.70;;;3.30;;
64459;SDS011;50828;53.756;21.140;2023-04-03T10:17:46;6.20;;;3.10;;
64459;SDS011;50828;53.756;21.140;2023-04-03T10:23:02;16.80;;;4.60;;
64459;SDS011;50828;53.756;21.140;2023-04-03T10:28:20;28.50;;;10.70;;
64459;SDS011;50828;53.756;21.140;2023-04-03T10:33:39;19.80;;;7.30;;
64459;SDS011;50828;53.756;21.140;2023-04-03T10:39:00;24.90;;;8.20;;
64459;SDS011;50828;53.756;21.140;2023-04-03T10:44:15;31.20;;;11.40;;
64459;SDS011;50828;53.756;21.140;2023-04-03T10:49:38;20.90;;;7.40;;
64459;SDS011;50828;53.756;21.140;2023-04-03T10:55:05;14.90;;;5.00;;
64459;SDS011;50828;53.756;21.140;2023-04-03T11:00:28;9.20;;;3.30;;
64459;SDS011;50828;53.756;21.140;2023-04-03T11:05:42;7.00;;;3.20;;
64459;SDS011;50828;53.756;21.140;2023-04-03T11:10:53;9.10;;;3.30;;
64459;SDS011;50828;53.756;21.140;2023-04-03T11:16:05;9.10;;;4.20;;
64459;SDS011;50828;53.756;21.140;2023-04-03T11:21:14;5.60;;;3.00;;
64459;SDS011;50828;53.756;21.140;2023-04-03T11:26:27;5.40;;;2.50;;
64459;SDS011;50828;53.756;21.140;2023-04-03T11:31:44;7.70;;;2.80;;
64459;SDS011;50828;53.756;21.140;2023-04-03T11:37:06;7.40;;;3.60;;
64459;SDS011;50828;53.756;21.140;2023-04-03T11:42:33;6.50;;;3.00;;
64459;SDS011;50828;53.756;21.140;2023-04-03T11:47:46;10.60;;;4.70;;
64459;SDS011;50828;53.756;21.140;2023-04-03T11:52:57;8.60;;;4.10;;
64459;SDS011;50828;53.756;21.140;2023-04-03T11:58:12;6.80;;;2.50;;
64459;SDS011;50828;53.756;21.140;2023-04-03T12:09:23;7.40;;;2.80;;
64459;SDS011;50828;53.756;21.140;2023-04-03T12:14:52;7.70;;;3.00;;
64459;SDS011;50828;53.756;21.140;2023-04-03T12:20:00;6.30;;;2.70;;
64459;SDS011;50828;53.756;21.140;2023-04-03T12:30:56;5.90;;;2.50;;
64459;SDS011;50828;53.756;21.140;2023-04-03T12:36:07;10.40;;;4.60;;
64459;SDS011;50828;53.756;21.140;2023-04-03T12:41:23;17.30;;;6.20;;
64459;SDS011;50828;53.756;21.140;2023-04-03T12:46:43;26.10;;;10.00;;
64459;SDS011;50828;53.756;21.140;2023-04-03T12:51:52;15.40;;;6.40;;
64459;SDS011;50828;53.756;21.140;2023-04-03T12:57:15;14.10;;;5.00;;
64459;SDS011;50828;53.756;21.140;2023-04-03T13:02:25;13.00;;;4.00;;
64459;SDS011;50828;53.756;21.140;2023-04-03T13:07:34;12.10;;;5.40;;
64459;SDS011;50828;53.756;21.140;2023-04-03T13:12:49;21.00;;;9.60;;
64459;SDS011;50828;53.756;21.140;2023-04-03T13:17:58;21.20;;;7.70;;
64459;SDS011;50828;53.756;21.140;2023-04-03T13:23:06;14.00;;;6.00;;
64459;SDS011;50828;53.756;21.140;2023-04-03T13:28:19;8.80;;;4.20;;
64459;SDS011;50828;53.756;21.140;2023-04-03T13:33:29;9.90;;;4.20;;
64459;SDS011;50828;53.756;21.140;2023-04-03T13:38:41;10.70;;;5.50;;
64459;SDS011;50828;53.756;21.140;2023-04-03T13:43:48;12.90;;;7.40;;
64459;SDS011;50828;53.756;21.140;2023-04-03T13:49:18;13.60;;;6.80;;
64459;SDS011;50828;53.756;21.140;2023-04-03T13:54:29;11.60;;;5.90;;
64459;SDS011;50828;53.756;21.140;2023-04-03T13:59:39;9.00;;;4.40;;
64459;SDS011;50828;53.756;21.140;2023-04-03T14:04:50;8.70;;;3.80;;
64459;SDS011;50828;53.756;21.140;2023-04-03T14:10:02;7.00;;;3.50;;
64459;SDS011;50828;53.756;21.140;2023-04-03T14:15:16;6.70;;;3.60;;
64459;SDS011;50828;53.756;21.140;2023-04-03T14:20:27;13.30;;;7.20;;
64459;SDS011;50828;53.756;21.140;2023-04-03T14:25:35;19.00;;;9.30;;
64459;SDS011;50828;53.756;21.140;2023-04-03T14:30:43;14.30;;;7.70;;
64459;SDS011;50828;53.756;21.140;2023-04-03T14:35:51;11.80;;;6.70;;
64459;SDS011;50828;53.756;21.140;2023-04-03T14:41:00;13.40;;;7.50;;
64459;SDS011;50828;53.756;21.140;2023-04-03T14:46:19;12.70;;;7.40;;
64459;SDS011;50828;53.756;21.140;2023-04-03T14:51:45;10.80;;;6.20;;
64459;SDS011;50828;53.756;21.140;2023-04-03T14:56:52;10.10;;;4.90;;
64459;SDS011;50828;53.756;21.140;2023-04-03T15:02:01;10.30;;;5.30;;
64459;SDS011;50828;53.756;21.140;2023-04-03T15:07:15;17.90;;;7.80;;
64459;SDS011;50828;53.756;21.140;2023-04-03T15:12:23;19.10;;;9.40;;
64459;SDS011;50828;53.756;21.140;2023-04-03T15:17:30;22.10;;;9.50;;
64459;SDS011;50828;53.756;21.140;2023-04-03T15:22:38;21.20;;;9.00;;
64459;SDS011;50828;53.756;21.140;2023-04-03T15:27:46;21.90;;;10.30;;
64459;SDS011;50828;53.756;21.140;2023-04-03T15:32:53;18.00;;;8.70;;
64459;SDS011;50828;53.756;21.140;2023-04-03T15:38:01;17.10;;;8.60;;
64459;SDS011;50828;53.756;21.140;2023-04-03T15:43:09;15.60;;;7.70;;
64459;SDS011;50828;53.756;21.140;2023-04-03T15:48:16;16.50;;;8.10;;
64459;SDS011;50828;53.756;21.140;2023-04-03T15:53:24;22.40;;;9.40;;
64459;SDS011;50828;53.756;21.140;2023-04-03T15:58:31;63.30;;;19.60;;
64459;SDS011;50828;53.756;21.140;2023-04-03T16:03:39;96.90;;;28.40;;
64459;SDS011;50828;53.756;21.140;2023-04-03T16:08:48;44.70;;;18.00;;
64459;SDS011;50828;53.756;21.140;2023-04-03T16:14:00;36.30;;;14.40;;
64459;SDS011;50828;53.756;21.140;2023-04-03T16:19:08;50.70;;;17.40;;
64459;SDS011;50828;53.756;21.140;2023-04-03T16:24:16;37.90;;;14.10;;
64459;SDS011;50828;53.756;21.140;2023-04-03T16:29:23;39.10;;;14.10;;
64459;SDS011;50828;53.756;21.140;2023-04-03T16:34:31;33.60;;;11.80;;
64459;SDS011;50828;53.756;21.140;2023-04-03T16:39:38;34.40;;;11.40;;
64459;SDS011;50828;53.756;21.140;2023-04-03T16:44:46;26.30;;;9.00;;
64459;SDS011;50828;53.756;21.140;2023-04-03T16:49:53;28.60;;;8.60;;
64459;SDS011;50828;53.756;21.140;2023-04-03T16:55:00;34.80;;;14.20;;
64459;SDS011;50828;53.756;21.140;2023-04-03T17:00:09;40.40;;;15.40;;
64459;SDS011;50828;53.756;21.140;2023-04-03T17:05:18;31.90;;;13.90;;
64459;SDS011;50828;53.756;21.140;2023-04-03T17:10:25;27.40;;;11.70;;
64459;SDS011;50828;53.756;21.140;2023-04-03T17:15:34;28.00;;;12.90;;
64459;SDS011;50828;53.756;21.140;2023-04-03T17:20:42;26.50;;;10.90;;
64459;SDS011;50828;53.756;21.140;2023-04-03T17:25:49;20.70;;;10.60;;
64459;SDS011;50828;53.756;21.140;2023-04-03T17:30:58;13.30;;;7.30;;
64459;SDS011;50828;53.756;21.140;2023-04-03T17:36:08;14.10;;;7.50;;
64459;SDS011;50828;53.756;21.140;2023-04-03T17:41:16;11.70;;;5.80;;
64459;SDS011;50828;53.756;21.140;2023-04-03T17:46:24;13.30;;;6.10;;
64459;SDS011;50828;53.756;21.140;2023-04-03T17:51:35;24.20;;;11.40;;
64459;SDS011;50828;53.756;21.140;2023-04-03T17:56:42;40.80;;;24.50;;
64459;SDS011;50828;53.756;21.140;2023-04-03T18:01:50;94.50;;;35.90;;
64459;SDS011;50828;53.756;21.140;2023-04-03T18:07:00;115.80;;;38.30;;
64459;SDS011;50828;53.756;21.140;2023-04-03T18:12:12;122.10;;;43.40;;
64459;SDS011;50828;53.756;21.140;2023-04-03T18:17:19;57.60;;;21.00;;
64459;SDS011;50828;53.756;21.140;2023-04-03T18:22:27;66.00;;;20.30;;
64459;SDS011;50828;53.756;21.140;2023-04-03T18:27:35;89.00;;;23.80;;
64459;SDS011;50828;53.756;21.140;2023-04-03T18:32:42;211.30;;;43.60;;
64459;SDS011;50828;53.756;21.140;2023-04-03T18:37:49;240.10;;;49.90;;
64459;SDS011;50828;53.756;21.140;2023-04-03T18:42:56;261.10;;;56.60;;
64459;SDS011;50828;53.756;21.140;2023-04-03T18:48:04;175.80;;;38.60;;
64459;SDS011;50828;53.756;21.140;2023-04-03T18:53:12;138.90;;;29.90;;
64459;SDS011;50828;53.756;21.140;2023-04-03T18:58:19;87.00;;;21.60;;
64459;SDS011;50828;53.756;21.140;2023-04-03T19:03:26;111.50;;;24.10;;
64459;SDS011;50828;53.756;21.140;2023-04-03T19:08:35;118.50;;;26.80;;
64459;SDS011;50828;53.756;21.140;2023-04-03T19:13:42;56.20;;;13.30;;
64459;SDS011;50828;53.756;21.140;2023-04-03T19:19:10;19.20;;;6.00;;
64459;SDS011;50828;53.756;21.140;2023-04-03T19:24:17;20.20;;;5.70;;
64459;SDS011;50828;53.756;21.140;2023-04-03T19:29:25;40.50;;;10.40;;
64459;SDS011;50828;53.756;21.140;2023-04-03T19:34:32;41.60;;;10.60;;
64459;SDS011;50828;53.756;21.140;2023-04-03T19:39:39;48.10;;;11.00;;
64459;SDS011;50828;53.756;21.140;2023-04-03T19:44:46;51.00;;;11.80;;
64459;SDS011;50828;53.756;21.140;2023-04-03T19:49:55;82.60;;;17.70;;
64459;SDS011;50828;53.756;21.140;2023-04-03T19:55:03;39.90;;;10.60;;
64459;SDS011;50828;53.756;21.140;2023-04-03T20:00:12;18.20;;;4.60;;
64459;SDS011;50828;53.756;21.140;2023-04-03T20:05:20;13.50;;;4.40;;
64459;SDS011;50828;53.756;21.140;2023-04-03T20:10:28;16.10;;;4.90;;
64459;SDS011;50828;53.756;21.140;2023-04-03T20:15:36;12.20;;;3.80;;
64459;SDS011;50828;53.756;21.140;2023-04-03T20:20:44;9.60;;;3.10;;
64459;SDS011;50828;53.756;21.140;2023-04-03T20:25:56;9.40;;;3.40;;
64459;SDS011;50828;53.756;21.140;2023-04-03T20:31:17;9.20;;;3.30;;
64459;SDS011;50828;53.756;21.140;2023-04-03T20:36:25;10.20;;;3.20;;
64459;SDS011;50828;53.756;21.140;2023-04-03T20:41:33;7.00;;;2.30;;
64459;SDS011;50828;53.756;21.140;2023-04-03T20:46:41;4.70;;;1.80;;
64459;SDS011;50828;53.756;21.140;2023-04-03T20:51:56;5.50;;;2.00;;
64459;SDS011;50828;53.756;21.140;2023-04-03T20:57:03;7.60;;;1.90;;
64459;SDS011;50828;53.756;21.140;2023-04-03T21:02:10;5.10;;;2.10;;
64459;SDS011;50828;53.756;21.140;2023-04-03T21:24:06;3.90;;;1.80;;
64459;SDS011;50828;53.756;21.140;2023-04-03T21:29:14;8.00;;;1.90;;
64459;SDS011;50828;53.756;21.140;2023-04-03T21:34:21;6.10;;;2.20;;
64459;SDS011;50828;53.756;21.140;2023-04-03T21:39:30;7.80;;;2.70;;
64459;SDS011;50828;53.756;21.140;2023-04-03T21:44:37;9.90;;;2.60;;
64459;SDS011;50828;53.756;21.140;2023-04-03T21:49:45;4.60;;;2.20;;
64459;SDS011;50828;53.756;21.140;2023-04-03T21:54:52;8.30;;;3.10;;
64459;SDS011;50828;53.756;21.140;2023-04-03T22:00:00;9.20;;;2.70;;
64459;SDS011;50828;53.756;21.140;2023-04-03T22:05:09;5.20;;;2.10;;
64459;SDS011;50828;53.756;21.140;2023-04-03T22:10:16;6.20;;;2.00;;
64459;SDS011;50828;53.756;21.140;2023-04-03T22:15:23;5.20;;;2.20;;
64459;SDS011;50828;53.756;21.140;2023-04-03T22:20:30;8.90;;;2.20;;
64459;SDS011;50828;53.756;21.140;2023-04-03T22:25:38;3.60;;;1.90;;
64459;SDS011;50828;53.756;21.140;2023-04-03T22:30:45;5.30;;;2.20;;
64459;SDS011;50828;53.756;21.140;2023-04-03T22:35:53;4.30;;;2.20;;
64459;SDS011;50828;53.756;21.140;2023-04-03T22:41:00;7.40;;;2.00;;
64459;SDS011;50828;53.756;21.140;2023-04-03T22:46:08;7.50;;;2.40;;
64459;SDS011;50828;53.756;21.140;2023-04-03T22:51:16;7.40;;;2.20;;
64459;SDS011;50828;53.756;21.140;2023-04-03T22:56:23;8.40;;;2.80;;
64459;SDS011;50828;53.756;21.140;2023-04-03T23:01:30;6.80;;;3.10;;
64459;SDS011;50828;53.756;21.140;2023-04-03T23:06:41;11.70;;;3.60;;
64459;SDS011;50828;53.756;21.140;2023-04-03T23:11:48;12.70;;;3.20;;
64459;SDS011;50828;53.756;21.140;2023-04-03T23:16:55;7.50;;;2.50;;
64459;SDS011;50828;53.756;21.140;2023-04-03T23:27:14;7.60;;;2.40;;
64459;SDS011;50828;53.756;21.140;2023-04-03T23:32:21;6.50;;;2.50;;
64459;SDS011;50828;53.756;21.140;2023-04-03T23:37:29;6.90;;;3.10;;
64459;SDS011;50828;53.756;21.140;2023-04-03T23:42:36;6.60;;;2.30;;
64459;SDS011;50828;53.756;21.140;2023-04-03T23:47:43;12.80;;;2.50;;
64459;SDS011;50828;53.756;21.140;2023-04-03T23:52:50;4.80;;;2.00;;
64459;SDS011;50828;53.756;21.140;2023-04-03T23:57:58;6.10;;;2.10;;
